createdAt,value
2015-06-29T07:41:03.792Z,99646
2015-06-29T07:41:21.448Z,99648
2015-06-29T07:41:39.933Z,99641
2015-06-29T07:42:00.372Z,99638
2015-06-29T07:42:18.763Z,99648
2015-06-29T07:42:37.388Z,99643
2015-06-29T07:42:55.763Z,99643
2015-06-29T07:43:14.171Z,99641
2015-06-29T07:43:32.530Z,99646
2015-06-29T07:43:51.062Z,99641
2015-06-29T07:44:09.580Z,99648
2015-06-29T07:44:27.971Z,99646
2015-06-29T07:44:46.393Z,99641
2015-06-29T07:45:04.783Z,99651
2015-06-29T07:45:23.255Z,99648
2015-06-29T07:45:41.880Z,99651
2015-06-29T07:46:00.302Z,99651
2015-06-29T07:46:18.757Z,99648
2015-06-29T07:46:37.242Z,99657
2015-06-29T07:46:55.632Z,99651
2015-06-29T07:47:13.976Z,99659
2015-06-29T07:47:32.369Z,99654
2015-06-29T07:47:50.744Z,99648
2015-06-29T07:48:09.119Z,99657
2015-06-29T07:48:30.574Z,99654
2015-06-29T07:48:48.949Z,99654
2015-06-29T07:49:07.417Z,99657
2015-06-29T07:49:25.795Z,99662
2015-06-29T07:49:44.389Z,99648
2015-06-29T07:50:02.780Z,99654
2015-06-29T07:50:21.155Z,99657
2015-06-29T07:50:39.594Z,99654
2015-06-29T07:50:58.094Z,99654
2015-06-29T07:51:16.594Z,99657
2015-06-29T07:51:35.050Z,99648
2015-06-29T07:51:53.472Z,99646
2015-06-29T07:52:11.925Z,99654
2015-06-29T07:52:30.691Z,99654
2015-06-29T07:52:48.772Z,99654
2015-06-29T07:53:07.178Z,99646
2015-06-29T07:53:25.616Z,99656
2015-06-29T07:53:44.134Z,99654
2015-06-29T07:54:02.821Z,99654
2015-06-29T07:54:21.477Z,99659
2015-06-29T07:54:40.040Z,99654
2015-06-29T07:54:58.480Z,99659
2015-06-29T07:55:16.902Z,99656
2015-06-29T07:55:35.262Z,99656
2015-06-29T07:55:53.717Z,99662
2015-06-29T07:56:12.232Z,99654
2015-06-29T07:56:30.857Z,99659
2015-06-29T07:56:49.435Z,99654
2015-06-29T07:57:07.719Z,99651
2015-06-29T07:57:26.094Z,99651
2015-06-29T07:57:44.609Z,99654
2015-06-29T07:58:03.097Z,99662
2015-06-29T07:58:21.472Z,99656
2015-06-29T07:58:39.847Z,99665
2015-06-29T07:58:58.347Z,99656
2015-06-29T07:59:16.208Z,99662
2015-06-29T07:59:34.802Z,99665
2015-06-29T07:59:53.255Z,99662
2015-06-29T08:00:11.117Z,99665
2015-06-29T08:00:29.492Z,99665
2015-06-29T08:00:47.914Z,99665
2015-06-29T08:01:06.086Z,99662
2015-06-29T08:01:24.182Z,99656
2015-06-29T08:01:42.526Z,99659
2015-06-29T08:02:01.041Z,99665
2015-06-29T08:02:19.575Z,99654
2015-06-29T08:02:38.185Z,99659
2015-06-29T08:02:56.466Z,99656
2015-06-29T08:03:14.904Z,99651
2015-06-29T08:03:33.327Z,99656
2015-06-29T08:03:51.812Z,99659
2015-06-29T08:04:10.327Z,99651
2015-06-29T08:04:29.643Z,99656
2015-06-29T08:04:48.018Z,99651
2015-06-29T08:05:05.768Z,99654
2015-06-29T08:05:23.784Z,99656
2015-06-29T08:05:42.598Z,99662
2015-06-29T08:06:00.676Z,99659
2015-06-29T08:06:19.145Z,99656
2015-06-29T08:06:37.007Z,99648
2015-06-29T08:06:55.460Z,99648
2015-06-29T08:07:13.835Z,99654
2015-06-29T08:07:32.210Z,99654
2015-06-29T08:07:49.994Z,99656
2015-06-29T08:08:08.369Z,99656
2015-06-29T08:08:26.994Z,99646
2015-06-29T08:08:45.262Z,99659
2015-06-29T08:09:02.340Z,99651
2015-06-29T08:09:20.825Z,99651
2015-06-29T08:09:39.262Z,99659
2015-06-29T08:09:56.999Z,99651
2015-06-29T08:10:15.514Z,99656
2015-06-29T08:10:33.889Z,99651
2015-06-29T08:10:52.470Z,99651
2015-06-29T08:11:10.189Z,99651
2015-06-29T08:11:28.627Z,99651
2015-06-29T08:11:47.080Z,99656
2015-06-29T08:12:04.816Z,99656
2015-06-29T08:12:23.332Z,99651
2015-06-29T08:12:41.051Z,99651
2015-06-29T08:12:59.429Z,99648
2015-06-29T08:13:17.819Z,99656
2015-06-29T08:13:36.194Z,99651
2015-06-29T08:13:54.569Z,99656
2015-06-29T08:14:12.946Z,99646
2015-06-29T08:14:31.321Z,99656
2015-06-29T08:14:49.712Z,99654
2015-06-29T08:15:08.090Z,99665
2015-06-29T08:15:26.465Z,99665
2015-06-29T08:15:44.840Z,99653
2015-06-29T08:16:03.230Z,99659
2015-06-29T08:16:21.592Z,99665
2015-06-29T08:16:39.326Z,99656
2015-06-29T08:16:57.701Z,99656
2015-06-29T08:17:14.767Z,99656
2015-06-29T08:17:33.157Z,99662
2015-06-29T08:17:51.532Z,99656
2015-06-29T08:18:09.251Z,99662
2015-06-29T08:18:27.628Z,99653
2015-06-29T08:18:45.347Z,99662
2015-06-29T08:19:03.722Z,99656
2015-06-29T08:19:22.100Z,99656
2015-06-29T08:19:40.475Z,99656
2015-06-29T08:19:58.850Z,99656
2015-06-29T08:20:17.225Z,99665
2015-06-29T08:20:35.601Z,99646
2015-06-29T08:20:53.976Z,99665
2015-06-29T08:21:12.351Z,99665
2015-06-29T08:21:30.745Z,99656
2015-06-29T08:21:48.464Z,99656
2015-06-29T08:22:06.183Z,99673
2015-06-29T08:22:24.558Z,99668
2015-06-29T08:22:42.935Z,99668
2015-06-29T08:23:01.310Z,99668
2015-06-29T08:23:19.701Z,99665
2015-06-29T08:23:38.078Z,99668
2015-06-29T08:23:56.453Z,99665
2015-06-29T08:24:14.843Z,99665
2015-06-29T08:24:33.218Z,99668
2015-06-29T08:24:51.595Z,99668
2015-06-29T08:25:09.970Z,99673
2015-06-29T08:25:28.361Z,99665
2015-06-29T08:25:46.739Z,99665
2015-06-29T08:26:05.114Z,99673
2015-06-29T08:26:23.504Z,99668
2015-06-29T08:26:41.879Z,99673
2015-06-29T08:27:00.256Z,99671
2015-06-29T08:27:18.631Z,99668
2015-06-29T08:27:37.069Z,99659
2015-06-29T08:27:55.572Z,99668
2015-06-29T08:28:14.072Z,99668
2015-06-29T08:28:32.478Z,99662
2015-06-29T08:28:50.853Z,99665
2015-06-29T08:29:09.246Z,99668
2015-06-29T08:29:27.761Z,99662
2015-06-29T08:29:46.121Z,99665
2015-06-29T08:30:04.593Z,99668
2015-06-29T08:30:23.030Z,99671
2015-06-29T08:30:41.405Z,99668
2015-06-29T08:30:59.780Z,99668
2015-06-29T08:31:18.157Z,99662
2015-06-29T08:31:36.532Z,99668
2015-06-29T08:31:54.266Z,99659
2015-06-29T08:32:12.644Z,99668
2015-06-29T08:32:30.629Z,99676
2015-06-29T08:32:48.910Z,99668
2015-06-29T08:33:06.629Z,99668
2015-06-29T08:33:25.521Z,99673
2015-06-29T08:33:44.006Z,99670
2015-06-29T08:34:02.506Z,99670
2015-06-29T08:34:20.274Z,99673
2015-06-29T08:34:38.790Z,99685
2015-06-29T08:34:57.165Z,99665
2015-06-29T08:35:15.618Z,99673
2015-06-29T08:35:33.339Z,99665
2015-06-29T08:35:52.136Z,99671
2015-06-29T08:36:10.183Z,99668
2015-06-29T08:36:28.576Z,99676
2015-06-29T08:36:47.092Z,99668
2015-06-29T08:37:05.561Z,99668
2015-06-29T08:37:24.029Z,99671
2015-06-29T08:37:42.844Z,99679
2015-06-29T08:38:00.922Z,99671
2015-06-29T08:38:19.297Z,99668
2015-06-29T08:38:37.831Z,99676
2015-06-29T08:38:56.300Z,99670
2015-06-29T08:39:14.800Z,99670
2015-06-29T08:39:33.222Z,99659
2015-06-29T08:39:51.599Z,99668
2015-06-29T08:40:10.021Z,99668
2015-06-29T08:40:28.505Z,99665
2015-06-29T08:40:46.960Z,99659
2015-06-29T08:41:05.335Z,99668
2015-06-29T08:41:23.835Z,99673
2015-06-29T08:41:42.335Z,99665
2015-06-29T08:42:00.745Z,99656
2015-06-29T08:42:19.104Z,99662
2015-06-29T08:42:37.479Z,99656
2015-06-29T08:42:55.856Z,99665
2015-06-29T08:43:14.247Z,99659
2015-06-29T08:43:32.747Z,99656
2015-06-29T08:43:51.122Z,99665
2015-06-29T08:44:09.499Z,99668
2015-06-29T08:44:27.874Z,99670
2015-06-29T08:44:45.452Z,99668
2015-06-29T08:45:03.831Z,99668
2015-06-29T08:45:22.315Z,99665
2015-06-29T08:45:40.831Z,99670
2015-06-29T08:45:58.971Z,99668
2015-06-29T08:46:17.051Z,99668
2015-06-29T08:46:35.536Z,99668
2015-06-29T08:46:54.051Z,99673
2015-06-29T08:47:12.428Z,99668
2015-06-29T08:47:30.944Z,99665
2015-06-29T08:47:49.413Z,99673
2015-06-29T08:48:07.897Z,99670
2015-06-29T08:48:26.369Z,99676
